Fillmore, Illinois
Current Conditions -  °F | °C
As of 3:35 PM on Saturday 22 Nov 2014 (Local Time) from K3LF Reporting Station
Overcast Overcast  
Wind Chill: 54°   Ceiling: 2300
Heat Index: 54°   Visibility: 10mi
Dew Point: 46°   Wind: 16mph
Humidity: 75%   Direction: 190°S
Pressure: 29.97"   Gusts: NA
Location:  39.12°N, 89.28°W
Report Text: K3LF 222135Z AUTO 19014KT 10SM BKN023 OVC028 12/08 A2997 RMK AO2 T01210077
Loading
Personal Weather Stations






























Interactive Weather Map New forecast layout! Learn more

10-Day Weather Forecast

Advertisements
Track Severe Weather on mobile